sensor_id;sensor_type;location;lat;lon;timestamp;P1;durP1;ratioP1;P2;durP2;ratioP2
18322;SDS011;9287;49.456;11.064;2023-02-26T00:00:42;1.00;;;0.90;;
18322;SDS011;9287;49.456;11.064;2023-02-26T00:03:09;0.83;;;0.70;;
18322;SDS011;9287;49.456;11.064;2023-02-26T00:05:37;2.00;;;1.00;;
18322;SDS011;9287;49.456;11.064;2023-02-26T00:08:05;1.20;;;0.83;;
18322;SDS011;9287;49.456;11.064;2023-02-26T00:10:33;1.90;;;0.90;;
18322;SDS011;9287;49.456;11.064;2023-02-26T00:13:01;1.80;;;0.80;;
18322;SDS011;9287;49.456;11.064;2023-02-26T00:15:31;1.00;;;0.90;;
18322;SDS011;9287;49.456;11.064;2023-02-26T00:18:00;2.50;;;0.83;;
18322;SDS011;9287;49.456;11.064;2023-02-26T00:20:32;2.00;;;0.90;;
18322;SDS011;9287;49.456;11.064;2023-02-26T00:23:03;1.57;;;0.90;;
18322;SDS011;9287;49.456;11.064;2023-02-26T00:25:31;3.27;;;1.00;;
18322;SDS011;9287;49.456;11.064;2023-02-26T00:27:59;5.03;;;1.20;;
18322;SDS011;9287;49.456;11.064;2023-02-26T00:30:27;2.97;;;1.30;;
18322;SDS011;9287;49.456;11.064;2023-02-26T00:32:57;2.03;;;0.97;;
18322;SDS011;9287;49.456;11.064;2023-02-26T00:35:25;1.73;;;1.10;;
18322;SDS011;9287;49.456;11.064;2023-02-26T00:37:55;4.00;;;1.00;;
18322;SDS011;9287;49.456;11.064;2023-02-26T00:40:28;2.67;;;0.90;;
18322;SDS011;9287;49.456;11.064;2023-02-26T00:43:03;4.10;;;1.50;;
18322;SDS011;9287;49.456;11.064;2023-02-26T00:45:32;2.27;;;1.13;;
18322;SDS011;9287;49.456;11.064;2023-02-26T00:48:29;3.63;;;1.40;;
18322;SDS011;9287;49.456;11.064;2023-02-26T00:51:08;2.53;;;1.50;;
18322;SDS011;9287;49.456;11.064;2023-02-26T00:53:46;1.30;;;1.20;;
18322;SDS011;9287;49.456;11.064;2023-02-26T00:56:18;2.87;;;1.27;;
18322;SDS011;9287;49.456;11.064;2023-02-26T00:58:46;2.20;;;1.00;;
18322;SDS011;9287;49.456;11.064;2023-02-26T01:01:13;2.57;;;1.23;;
18322;SDS011;9287;49.456;11.064;2023-02-26T01:03:43;2.10;;;1.67;;
18322;SDS011;9287;49.456;11.064;2023-02-26T01:06:11;2.43;;;1.23;;
18322;SDS011;9287;49.456;11.064;2023-02-26T01:08:42;2.67;;;1.43;;
18322;SDS011;9287;49.456;11.064;2023-02-26T01:11:14;2.10;;;1.27;;
18322;SDS011;9287;49.456;11.064;2023-02-26T01:13:42;2.33;;;1.30;;
18322;SDS011;9287;49.456;11.064;2023-02-26T01:16:11;4.37;;;1.23;;
18322;SDS011;9287;49.456;11.064;2023-02-26T01:18:46;3.50;;;1.03;;
18322;SDS011;9287;49.456;11.064;2023-02-26T01:21:26;5.10;;;1.23;;
18322;SDS011;9287;49.456;11.064;2023-02-26T01:23:57;1.27;;;1.10;;
18322;SDS011;9287;49.456;11.064;2023-02-26T01:26:27;2.53;;;1.13;;
18322;SDS011;9287;49.456;11.064;2023-02-26T01:28:55;3.90;;;0.93;;
18322;SDS011;9287;49.456;11.064;2023-02-26T01:31:29;3.60;;;1.10;;
18322;SDS011;9287;49.456;11.064;2023-02-26T01:34:07;3.40;;;1.30;;
18322;SDS011;9287;49.456;11.064;2023-02-26T01:36:42;3.77;;;1.20;;
18322;SDS011;9287;49.456;11.064;2023-02-26T01:39:18;6.73;;;1.30;;
18322;SDS011;9287;49.456;11.064;2023-02-26T01:41:56;2.47;;;1.20;;
18322;SDS011;9287;49.456;11.064;2023-02-26T01:44:30;3.67;;;1.03;;
18322;SDS011;9287;49.456;11.064;2023-02-26T01:47:03;2.67;;;1.20;;
18322;SDS011;9287;49.456;11.064;2023-02-26T01:49:38;1.83;;;1.30;;
18322;SDS011;9287;49.456;11.064;2023-02-26T01:52:06;2.90;;;1.13;;
18322;SDS011;9287;49.456;11.064;2023-02-26T01:55:24;1.80;;;1.17;;
18322;SDS011;9287;49.456;11.064;2023-02-26T01:57:55;2.47;;;1.03;;
18322;SDS011;9287;49.456;11.064;2023-02-26T02:00:26;2.37;;;0.90;;
18322;SDS011;9287;49.456;11.064;2023-02-26T02:02:54;1.80;;;1.00;;
18322;SDS011;9287;49.456;11.064;2023-02-26T02:05:25;1.20;;;0.93;;
18322;SDS011;9287;49.456;11.064;2023-02-26T02:07:57;1.60;;;1.00;;
18322;SDS011;9287;49.456;11.064;2023-02-26T02:10:25;3.77;;;1.20;;
18322;SDS011;9287;49.456;11.064;2023-02-26T02:12:55;2.80;;;1.03;;
18322;SDS011;9287;49.456;11.064;2023-02-26T02:15:34;1.80;;;1.10;;
18322;SDS011;9287;49.456;11.064;2023-02-26T02:18:08;3.30;;;1.07;;
18322;SDS011;9287;49.456;11.064;2023-02-26T02:20:58;1.73;;;1.00;;
18322;SDS011;9287;49.456;11.064;2023-02-26T02:23:44;3.67;;;1.30;;
18322;SDS011;9287;49.456;11.064;2023-02-26T02:26:41;1.30;;;1.20;;
18322;SDS011;9287;49.456;11.064;2023-02-26T02:32:35;3.43;;;1.30;;
18322;SDS011;9287;49.456;11.064;2023-02-26T02:35:08;2.17;;;0.97;;
18322;SDS011;9287;49.456;11.064;2023-02-26T02:37:42;1.87;;;0.93;;
18322;SDS011;9287;49.456;11.064;2023-02-26T02:40:14;2.93;;;1.00;;
18322;SDS011;9287;49.456;11.064;2023-02-26T02:42:45;3.40;;;0.97;;
18322;SDS011;9287;49.456;11.064;2023-02-26T02:45:20;1.70;;;0.80;;
18322;SDS011;9287;49.456;11.064;2023-02-26T02:47:54;1.20;;;1.00;;
18322;SDS011;9287;49.456;11.064;2023-02-26T02:50:30;1.03;;;0.87;;
18322;SDS011;9287;49.456;11.064;2023-02-26T02:53:03;1.33;;;0.90;;
18322;SDS011;9287;49.456;11.064;2023-02-26T02:55:35;2.53;;;0.80;;
18322;SDS011;9287;49.456;11.064;2023-02-26T02:58:08;0.97;;;0.70;;
18322;SDS011;9287;49.456;11.064;2023-02-26T03:00:39;1.03;;;0.77;;
18322;SDS011;9287;49.456;11.064;2023-02-26T03:03:12;3.13;;;1.20;;
18322;SDS011;9287;49.456;11.064;2023-02-26T03:05:46;3.07;;;0.93;;
18322;SDS011;9287;49.456;11.064;2023-02-26T03:08:15;2.60;;;0.80;;
18322;SDS011;9287;49.456;11.064;2023-02-26T03:10:46;1.00;;;0.70;;
18322;SDS011;9287;49.456;11.064;2023-02-26T03:13:15;1.87;;;0.90;;
18322;SDS011;9287;49.456;11.064;2023-02-26T03:15:46;1.10;;;0.80;;
18322;SDS011;9287;49.456;11.064;2023-02-26T03:18:25;1.97;;;1.00;;
18322;SDS011;9287;49.456;11.064;2023-02-26T03:21:03;1.67;;;0.77;;
18322;SDS011;9287;49.456;11.064;2023-02-26T03:23:39;0.70;;;0.67;;
18322;SDS011;9287;49.456;11.064;2023-02-26T03:26:13;1.90;;;0.90;;
18322;SDS011;9287;49.456;11.064;2023-02-26T03:28:45;1.70;;;0.70;;
18322;SDS011;9287;49.456;11.064;2023-02-26T03:31:19;1.03;;;0.80;;
18322;SDS011;9287;49.456;11.064;2023-02-26T03:33:55;3.33;;;1.10;;
18322;SDS011;9287;49.456;11.064;2023-02-26T03:36:27;2.73;;;0.90;;
18322;SDS011;9287;49.456;11.064;2023-02-26T03:39:00;2.37;;;0.90;;
18322;SDS011;9287;49.456;11.064;2023-02-26T03:41:32;2.20;;;0.77;;
18322;SDS011;9287;49.456;11.064;2023-02-26T03:44:06;1.30;;;0.70;;
18322;SDS011;9287;49.456;11.064;2023-02-26T03:46:41;1.30;;;0.80;;
18322;SDS011;9287;49.456;11.064;2023-02-26T03:49:15;2.90;;;1.10;;
18322;SDS011;9287;49.456;11.064;2023-02-26T03:51:49;1.37;;;0.80;;
18322;SDS011;9287;49.456;11.064;2023-02-26T03:54:19;1.20;;;0.90;;
18322;SDS011;9287;49.456;11.064;2023-02-26T03:56:51;2.47;;;1.00;;
18322;SDS011;9287;49.456;11.064;2023-02-26T03:59:19;2.97;;;0.80;;
18322;SDS011;9287;49.456;11.064;2023-02-26T04:01:49;1.37;;;0.80;;
18322;SDS011;9287;49.456;11.064;2023-02-26T04:04:24;1.60;;;0.80;;
18322;SDS011;9287;49.456;11.064;2023-02-26T04:06:54;2.00;;;1.10;;
18322;SDS011;9287;49.456;11.064;2023-02-26T04:09:23;1.07;;;0.87;;
18322;SDS011;9287;49.456;11.064;2023-02-26T04:11:52;3.60;;;1.00;;
18322;SDS011;9287;49.456;11.064;2023-02-26T04:14:21;2.00;;;1.07;;
18322;SDS011;9287;49.456;11.064;2023-02-26T04:16:49;2.63;;;0.80;;
18322;SDS011;9287;49.456;11.064;2023-02-26T04:19:17;0.87;;;0.70;;
18322;SDS011;9287;49.456;11.064;2023-02-26T04:21:46;2.40;;;0.80;;
18322;SDS011;9287;49.456;11.064;2023-02-26T04:24:14;1.47;;;0.80;;
18322;SDS011;9287;49.456;11.064;2023-02-26T04:26:41;1.13;;;0.87;;
18322;SDS011;9287;49.456;11.064;2023-02-26T04:29:09;3.20;;;0.80;;
18322;SDS011;9287;49.456;11.064;2023-02-26T04:31:37;2.07;;;1.00;;
18322;SDS011;9287;49.456;11.064;2023-02-26T04:34:05;2.80;;;0.83;;
18322;SDS011;9287;49.456;11.064;2023-02-26T04:36:32;1.33;;;0.77;;
18322;SDS011;9287;49.456;11.064;2023-02-26T04:39:01;1.83;;;0.80;;
18322;SDS011;9287;49.456;11.064;2023-02-26T04:41:29;1.07;;;0.80;;
18322;SDS011;9287;49.456;11.064;2023-02-26T04:43:57;1.50;;;0.80;;
18322;SDS011;9287;49.456;11.064;2023-02-26T04:46:25;2.10;;;0.83;;
18322;SDS011;9287;49.456;11.064;2023-02-26T04:48:53;1.47;;;0.70;;
18322;SDS011;9287;49.456;11.064;2023-02-26T04:51:21;2.00;;;0.90;;
18322;SDS011;9287;49.456;11.064;2023-02-26T04:53:49;2.90;;;0.77;;
18322;SDS011;9287;49.456;11.064;2023-02-26T04:56:19;2.07;;;0.97;;
18322;SDS011;9287;49.456;11.064;2023-02-26T04:58:46;1.80;;;0.90;;
18322;SDS011;9287;49.456;11.064;2023-02-26T05:01:14;1.87;;;1.00;;
18322;SDS011;9287;49.456;11.064;2023-02-26T05:03:42;1.67;;;0.80;;
18322;SDS011;9287;49.456;11.064;2023-02-26T05:06:09;2.73;;;1.00;;
18322;SDS011;9287;49.456;11.064;2023-02-26T05:08:37;3.53;;;0.80;;
18322;SDS011;9287;49.456;11.064;2023-02-26T05:11:07;1.00;;;0.60;;
18322;SDS011;9287;49.456;11.064;2023-02-26T05:13:37;0.73;;;0.73;;
18322;SDS011;9287;49.456;11.064;2023-02-26T05:16:05;1.80;;;0.73;;
18322;SDS011;9287;49.456;11.064;2023-02-26T05:18:34;2.43;;;0.70;;
18322;SDS011;9287;49.456;11.064;2023-02-26T05:21:01;1.97;;;0.73;;
18322;SDS011;9287;49.456;11.064;2023-02-26T05:23:30;0.70;;;0.60;;
18322;SDS011;9287;49.456;11.064;2023-02-26T05:25:58;1.67;;;0.90;;
18322;SDS011;9287;49.456;11.064;2023-02-26T05:28:27;1.30;;;0.60;;
18322;SDS011;9287;49.456;11.064;2023-02-26T05:30:56;5.63;;;0.73;;
18322;SDS011;9287;49.456;11.064;2023-02-26T05:33:24;0.93;;;0.80;;
18322;SDS011;9287;49.456;11.064;2023-02-26T05:35:52;2.00;;;0.80;;
18322;SDS011;9287;49.456;11.064;2023-02-26T05:38:20;1.10;;;0.87;;
18322;SDS011;9287;49.456;11.064;2023-02-26T05:40:48;1.47;;;0.77;;
18322;SDS011;9287;49.456;11.064;2023-02-26T05:43:16;3.03;;;0.80;;
18322;SDS011;9287;49.456;11.064;2023-02-26T05:45:43;3.30;;;0.80;;
18322;SDS011;9287;49.456;11.064;2023-02-26T05:48:13;2.10;;;0.80;;
18322;SDS011;9287;49.456;11.064;2023-02-26T05:50:41;1.07;;;0.70;;
18322;SDS011;9287;49.456;11.064;2023-02-26T05:53:08;3.83;;;0.87;;
18322;SDS011;9287;49.456;11.064;2023-02-26T05:55:36;1.13;;;0.60;;
18322;SDS011;9287;49.456;11.064;2023-02-26T05:58:04;1.43;;;0.73;;
18322;SDS011;9287;49.456;11.064;2023-02-26T06:00:32;1.97;;;0.80;;
18322;SDS011;9287;49.456;11.064;2023-02-26T06:03:00;1.87;;;0.70;;
18322;SDS011;9287;49.456;11.064;2023-02-26T06:05:29;0.97;;;0.60;;
18322;SDS011;9287;49.456;11.064;2023-02-26T06:07:57;2.40;;;0.70;;
18322;SDS011;9287;49.456;11.064;2023-02-26T06:10:25;2.63;;;0.73;;
18322;SDS011;9287;49.456;11.064;2023-02-26T06:12:52;3.00;;;0.70;;
18322;SDS011;9287;49.456;11.064;2023-02-26T06:15:20;1.60;;;0.60;;
18322;SDS011;9287;49.456;11.064;2023-02-26T06:17:48;1.83;;;0.70;;
18322;SDS011;9287;49.456;11.064;2023-02-26T06:20:16;1.43;;;0.60;;
18322;SDS011;9287;49.456;11.064;2023-02-26T06:22:45;2.10;;;0.97;;
18322;SDS011;9287;49.456;11.064;2023-02-26T06:25:13;2.37;;;0.80;;
18322;SDS011;9287;49.456;11.064;2023-02-26T06:27:41;1.00;;;0.67;;
18322;SDS011;9287;49.456;11.064;2023-02-26T06:30:09;1.80;;;0.90;;
18322;SDS011;9287;49.456;11.064;2023-02-26T06:32:37;2.03;;;0.90;;
18322;SDS011;9287;49.456;11.064;2023-02-26T06:35:06;3.90;;;0.90;;
18322;SDS011;9287;49.456;11.064;2023-02-26T06:37:34;1.67;;;1.00;;
18322;SDS011;9287;49.456;11.064;2023-02-26T06:40:04;3.07;;;1.20;;
18322;SDS011;9287;49.456;11.064;2023-02-26T06:42:32;1.30;;;1.20;;
18322;SDS011;9287;49.456;11.064;2023-02-26T06:45:00;2.60;;;1.10;;
18322;SDS011;9287;49.456;11.064;2023-02-26T06:47:28;3.43;;;1.10;;
18322;SDS011;9287;49.456;11.064;2023-02-26T06:49:55;2.07;;;1.00;;
18322;SDS011;9287;49.456;11.064;2023-02-26T06:52:23;3.43;;;1.20;;
18322;SDS011;9287;49.456;11.064;2023-02-26T06:54:51;1.27;;;0.93;;
18322;SDS011;9287;49.456;11.064;2023-02-26T06:57:20;3.27;;;0.90;;
18322;SDS011;9287;49.456;11.064;2023-02-26T06:59:48;1.97;;;0.70;;
18322;SDS011;9287;49.456;11.064;2023-02-26T07:02:17;2.23;;;1.00;;
18322;SDS011;9287;49.456;11.064;2023-02-26T07:04:47;2.03;;;0.80;;
18322;SDS011;9287;49.456;11.064;2023-02-26T07:07:15;1.90;;;0.90;;
18322;SDS011;9287;49.456;11.064;2023-02-26T07:09:43;1.27;;;0.70;;
18322;SDS011;9287;49.456;11.064;2023-02-26T07:12:11;1.83;;;0.90;;
18322;SDS011;9287;49.456;11.064;2023-02-26T07:14:40;1.33;;;0.70;;
18322;SDS011;9287;49.456;11.064;2023-02-26T07:17:10;1.50;;;0.80;;
18322;SDS011;9287;49.456;11.064;2023-02-26T07:19:45;2.07;;;0.80;;
18322;SDS011;9287;49.456;11.064;2023-02-26T07:22:14;1.50;;;0.87;;
18322;SDS011;9287;49.456;11.064;2023-02-26T07:24:42;1.27;;;0.80;;
18322;SDS011;9287;49.456;11.064;2023-02-26T07:27:10;1.97;;;0.90;;
18322;SDS011;9287;49.456;11.064;2023-02-26T07:29:38;3.27;;;0.90;;
18322;SDS011;9287;49.456;11.064;2023-02-26T07:32:07;1.87;;;0.87;;
18322;SDS011;9287;49.456;11.064;2023-02-26T07:34:35;2.90;;;1.00;;
18322;SDS011;9287;49.456;11.064;2023-02-26T07:37:03;0.73;;;0.70;;
18322;SDS011;9287;49.456;11.064;2023-02-26T07:39:30;1.30;;;0.77;;
18322;SDS011;9287;49.456;11.064;2023-02-26T07:41:58;1.50;;;0.73;;
18322;SDS011;9287;49.456;11.064;2023-02-26T07:44:25;2.17;;;0.70;;
18322;SDS011;9287;49.456;11.064;2023-02-26T07:46:53;1.70;;;0.80;;
18322;SDS011;9287;49.456;11.064;2023-02-26T07:49:22;1.37;;;0.80;;
18322;SDS011;9287;49.456;11.064;2023-02-26T07:51:50;1.93;;;0.80;;
18322;SDS011;9287;49.456;11.064;2023-02-26T07:54:18;1.33;;;0.80;;
18322;SDS011;9287;49.456;11.064;2023-02-26T07:56:45;2.37;;;0.80;;
18322;SDS011;9287;49.456;11.064;2023-02-26T07:59:13;5.07;;;0.90;;
18322;SDS011;9287;49.456;11.064;2023-02-26T08:01:41;0.83;;;0.80;;
18322;SDS011;9287;49.456;11.064;2023-02-26T08:04:09;2.50;;;0.90;;
18322;SDS011;9287;49.456;11.064;2023-02-26T08:06:38;2.30;;;0.80;;
18322;SDS011;9287;49.456;11.064;2023-02-26T08:09:06;1.50;;;0.70;;
18322;SDS011;9287;49.456;11.064;2023-02-26T08:11:33;1.33;;;0.70;;
18322;SDS011;9287;49.456;11.064;2023-02-26T08:14:05;2.00;;;0.80;;
18322;SDS011;9287;49.456;11.064;2023-02-26T08:16:32;1.70;;;0.90;;
18322;SDS011;9287;49.456;11.064;2023-02-26T08:19:00;1.87;;;1.00;;
18322;SDS011;9287;49.456;11.064;2023-02-26T08:21:28;0.80;;;0.80;;
18322;SDS011;9287;49.456;11.064;2023-02-26T08:23:57;0.73;;;0.63;;
18322;SDS011;9287;49.456;11.064;2023-02-26T08:26:25;2.10;;;0.80;;
18322;SDS011;9287;49.456;11.064;2023-02-26T08:28:53;3.23;;;1.13;;
18322;SDS011;9287;49.456;11.064;2023-02-26T08:31:21;2.93;;;1.00;;
18322;SDS011;9287;49.456;11.064;2023-02-26T08:33:49;1.27;;;0.90;;
18322;SDS011;9287;49.456;11.064;2023-02-26T08:36:16;1.50;;;0.83;;
18322;SDS011;9287;49.456;11.064;2023-02-26T08:38:44;1.53;;;1.03;;
18322;SDS011;9287;49.456;11.064;2023-02-26T08:41:13;1.33;;;1.00;;
18322;SDS011;9287;49.456;11.064;2023-02-26T08:43:41;2.20;;;0.90;;
18322;SDS011;9287;49.456;11.064;2023-02-26T08:46:08;1.93;;;0.80;;
18322;SDS011;9287;49.456;11.064;2023-02-26T08:48:36;2.40;;;1.00;;
18322;SDS011;9287;49.456;11.064;2023-02-26T08:51:04;1.60;;;0.97;;
18322;SDS011;9287;49.456;11.064;2023-02-26T08:53:32;1.00;;;0.70;;
18322;SDS011;9287;49.456;11.064;2023-02-26T08:56:00;0.70;;;0.70;;
18322;SDS011;9287;49.456;11.064;2023-02-26T08:58:29;1.03;;;0.80;;
18322;SDS011;9287;49.456;11.064;2023-02-26T09:00:57;1.07;;;0.70;;
18322;SDS011;9287;49.456;11.064;2023-02-26T09:03:25;0.50;;;0.50;;
18322;SDS011;9287;49.456;11.064;2023-02-26T09:05:53;0.60;;;0.60;;
18322;SDS011;9287;49.456;11.064;2023-02-26T09:08:20;0.80;;;0.80;;
18322;SDS011;9287;49.456;11.064;2023-02-26T09:10:48;0.83;;;0.70;;
18322;SDS011;9287;49.456;11.064;2023-02-26T09:13:16;0.70;;;0.67;;
18322;SDS011;9287;49.456;11.064;2023-02-26T09:15:45;1.03;;;0.60;;
18322;SDS011;9287;49.456;11.064;2023-02-26T09:18:15;0.67;;;0.67;;
18322;SDS011;9287;49.456;11.064;2023-02-26T09:20:43;0.60;;;0.60;;
18322;SDS011;9287;49.456;11.064;2023-02-26T09:23:11;0.87;;;0.70;;
18322;SDS011;9287;49.456;11.064;2023-02-26T09:25:39;0.60;;;0.60;;
18322;SDS011;9287;49.456;11.064;2023-02-26T09:28:06;0.97;;;0.77;;
18322;SDS011;9287;49.456;11.064;2023-02-26T09:30:34;0.60;;;0.60;;
18322;SDS011;9287;49.456;11.064;2023-02-26T09:33:03;0.40;;;0.40;;
18322;SDS011;9287;49.456;11.064;2023-02-26T09:35:31;0.40;;;0.40;;
18322;SDS011;9287;49.456;11.064;2023-02-26T09:37:59;0.60;;;0.60;;
18322;SDS011;9287;49.456;11.064;2023-02-26T09:40:30;0.60;;;0.50;;
18322;SDS011;9287;49.456;11.064;2023-02-26T09:43:13;0.33;;;0.33;;
18322;SDS011;9287;49.456;11.064;2023-02-26T09:45:57;0.40;;;0.40;;
18322;SDS011;9287;49.456;11.064;2023-02-26T09:48:30;0.67;;;0.40;;
18322;SDS011;9287;49.456;11.064;2023-02-26T09:51:00;0.50;;;0.50;;
18322;SDS011;9287;49.456;11.064;2023-02-26T09:53:28;0.67;;;0.40;;
18322;SDS011;9287;49.456;11.064;2023-02-26T09:56:00;0.40;;;0.40;;
18322;SDS011;9287;49.456;11.064;2023-02-26T09:58:33;0.30;;;0.30;;
18322;SDS011;9287;49.456;11.064;2023-02-26T10:01:05;1.83;;;0.40;;
18322;SDS011;9287;49.456;11.064;2023-02-26T10:03:43;0.23;;;0.23;;
18322;SDS011;9287;49.456;11.064;2023-02-26T10:06:22;0.93;;;0.60;;
18322;SDS011;9287;49.456;11.064;2023-02-26T10:11:58;0.30;;;0.30;;
18322;SDS011;9287;49.456;11.064;2023-02-26T10:14:30;0.40;;;0.40;;
18322;SDS011;9287;49.456;11.064;2023-02-26T10:17:04;0.50;;;0.50;;
18322;SDS011;9287;49.456;11.064;2023-02-26T10:22:12;0.50;;;0.40;;
18322;SDS011;9287;49.456;11.064;2023-02-26T10:24:45;1.03;;;0.50;;
18322;SDS011;9287;49.456;11.064;2023-02-26T10:27:19;0.50;;;0.33;;
18322;SDS011;9287;49.456;11.064;2023-02-26T10:29:55;0.47;;;0.40;;
18322;SDS011;9287;49.456;11.064;2023-02-26T10:32:27;0.77;;;0.40;;
18322;SDS011;9287;49.456;11.064;2023-02-26T10:35:01;0.30;;;0.30;;
18322;SDS011;9287;49.456;11.064;2023-02-26T10:37:38;1.90;;;0.40;;
18322;SDS011;9287;49.456;11.064;2023-02-26T10:40:15;0.40;;;0.40;;
18322;SDS011;9287;49.456;11.064;2023-02-26T10:42:46;1.07;;;0.50;;
18322;SDS011;9287;49.456;11.064;2023-02-26T10:45:25;0.30;;;0.30;;
18322;SDS011;9287;49.456;11.064;2023-02-26T10:48:08;0.53;;;0.40;;
18322;SDS011;9287;49.456;11.064;2023-02-26T10:50:48;1.90;;;0.40;;
18322;SDS011;9287;49.456;11.064;2023-02-26T10:53:19;0.73;;;0.30;;
18322;SDS011;9287;49.456;11.064;2023-02-26T10:55:48;1.27;;;0.30;;
18322;SDS011;9287;49.456;11.064;2023-02-26T10:58:21;0.30;;;0.30;;
18322;SDS011;9287;49.456;11.064;2023-02-26T11:00:51;0.30;;;0.30;;
18322;SDS011;9287;49.456;11.064;2023-02-26T11:03:21;0.20;;;0.20;;
18322;SDS011;9287;49.456;11.064;2023-02-26T11:05:56;0.30;;;0.30;;
18322;SDS011;9287;49.456;11.064;2023-02-26T11:08:25;0.40;;;0.40;;
18322;SDS011;9287;49.456;11.064;2023-02-26T11:10:55;0.50;;;0.30;;
18322;SDS011;9287;49.456;11.064;2023-02-26T11:13:25;0.30;;;0.30;;
18322;SDS011;9287;49.456;11.064;2023-02-26T11:15:55;0.60;;;0.40;;
18322;SDS011;9287;49.456;11.064;2023-02-26T11:18:25;0.40;;;0.30;;
18322;SDS011;9287;49.456;11.064;2023-02-26T11:20:58;0.47;;;0.27;;
18322;SDS011;9287;49.456;11.064;2023-02-26T11:23:27;0.30;;;0.30;;
18322;SDS011;9287;49.456;11.064;2023-02-26T11:25:58;1.90;;;0.50;;
18322;SDS011;9287;49.456;11.064;2023-02-26T11:28:31;0.40;;;0.40;;
18322;SDS011;9287;49.456;11.064;2023-02-26T11:31:04;1.03;;;0.40;;
18322;SDS011;9287;49.456;11.064;2023-02-26T11:33:35;0.50;;;0.40;;
18322;SDS011;9287;49.456;11.064;2023-02-26T11:36:07;1.37;;;0.40;;
18322;SDS011;9287;49.456;11.064;2023-02-26T11:38:38;0.40;;;0.40;;
18322;SDS011;9287;49.456;11.064;2023-02-26T11:41:06;1.37;;;0.40;;
18322;SDS011;9287;49.456;11.064;2023-02-26T11:43:35;0.40;;;0.40;;
18322;SDS011;9287;49.456;11.064;2023-02-26T11:46:10;0.50;;;0.40;;
18322;SDS011;9287;49.456;11.064;2023-02-26T11:48:39;0.60;;;0.40;;
18322;SDS011;9287;49.456;11.064;2023-02-26T11:51:12;0.37;;;0.37;;
18322;SDS011;9287;49.456;11.064;2023-02-26T11:53:43;0.50;;;0.37;;
18322;SDS011;9287;49.456;11.064;2023-02-26T11:56:24;0.50;;;0.40;;
18322;SDS011;9287;49.456;11.064;2023-02-26T11:58:56;0.90;;;0.40;;
18322;SDS011;9287;49.456;11.064;2023-02-26T12:01:27;0.33;;;0.33;;
18322;SDS011;9287;49.456;11.064;2023-02-26T12:03:57;0.40;;;0.40;;
18322;SDS011;9287;49.456;11.064;2023-02-26T12:06:28;0.80;;;0.40;;
18322;SDS011;9287;49.456;11.064;2023-02-26T12:08:56;0.70;;;0.30;;
18322;SDS011;9287;49.456;11.064;2023-02-26T12:11:32;0.37;;;0.37;;
18322;SDS011;9287;49.456;11.064;2023-02-26T12:14:14;0.40;;;0.33;;
18322;SDS011;9287;49.456;11.064;2023-02-26T12:16:56;0.30;;;0.30;;
18322;SDS011;9287;49.456;11.064;2023-02-26T12:19:37;1.47;;;0.40;;
18322;SDS011;9287;49.456;11.064;2023-02-26T12:22:18;0.67;;;0.20;;
18322;SDS011;9287;49.456;11.064;2023-02-26T12:25:00;0.40;;;0.40;;
18322;SDS011;9287;49.456;11.064;2023-02-26T12:27:53;1.23;;;0.40;;
18322;SDS011;9287;49.456;11.064;2023-02-26T12:30:54;0.40;;;0.40;;
18322;SDS011;9287;49.456;11.064;2023-02-26T12:33:34;0.83;;;0.40;;
18322;SDS011;9287;49.456;11.064;2023-02-26T12:36:14;0.60;;;0.40;;
18322;SDS011;9287;49.456;11.064;2023-02-26T12:39:00;0.47;;;0.40;;
18322;SDS011;9287;49.456;11.064;2023-02-26T12:41:42;0.50;;;0.40;;
18322;SDS011;9287;49.456;11.064;2023-02-26T12:44:22;1.60;;;0.50;;
18322;SDS011;9287;49.456;11.064;2023-02-26T12:47:01;0.40;;;0.40;;
18322;SDS011;9287;49.456;11.064;2023-02-26T12:49:49;2.30;;;0.50;;
18322;SDS011;9287;49.456;11.064;2023-02-26T12:52:38;1.23;;;0.50;;
18322;SDS011;9287;49.456;11.064;2023-02-26T12:55:35;0.87;;;0.30;;
18322;SDS011;9287;49.456;11.064;2023-02-26T12:58:18;0.50;;;0.43;;
18322;SDS011;9287;49.456;11.064;2023-02-26T13:04:31;0.50;;;0.30;;
18322;SDS011;9287;49.456;11.064;2023-02-26T13:10:17;0.40;;;0.40;;
18322;SDS011;9287;49.456;11.064;2023-02-26T13:12:56;0.30;;;0.30;;
18322;SDS011;9287;49.456;11.064;2023-02-26T13:15:42;0.83;;;0.50;;
18322;SDS011;9287;49.456;11.064;2023-02-26T13:18:20;0.77;;;0.43;;
18322;SDS011;9287;49.456;11.064;2023-02-26T13:20:54;0.47;;;0.30;;
18322;SDS011;9287;49.456;11.064;2023-02-26T13:23:27;0.53;;;0.30;;
18322;SDS011;9287;49.456;11.064;2023-02-26T13:25:59;0.63;;;0.40;;
18322;SDS011;9287;49.456;11.064;2023-02-26T13:28:35;0.83;;;0.40;;
18322;SDS011;9287;49.456;11.064;2023-02-26T13:31:10;0.40;;;0.33;;
18322;SDS011;9287;49.456;11.064;2023-02-26T13:33:42;0.83;;;0.40;;
18322;SDS011;9287;49.456;11.064;2023-02-26T13:36:11;0.67;;;0.37;;
18322;SDS011;9287;49.456;11.064;2023-02-26T13:38:45;0.47;;;0.40;;
18322;SDS011;9287;49.456;11.064;2023-02-26T13:41:32;0.40;;;0.40;;
18322;SDS011;9287;49.456;11.064;2023-02-26T13:44:12;0.77;;;0.33;;
18322;SDS011;9287;49.456;11.064;2023-02-26T13:47:09;0.40;;;0.30;;
18322;SDS011;9287;49.456;11.064;2023-02-26T13:49:50;0.40;;;0.40;;
18322;SDS011;9287;49.456;11.064;2023-02-26T13:52:26;0.60;;;0.37;;
18322;SDS011;9287;49.456;11.064;2023-02-26T13:54:55;1.00;;;0.63;;
18322;SDS011;9287;49.456;11.064;2023-02-26T13:57:36;0.50;;;0.50;;
18322;SDS011;9287;49.456;11.064;2023-02-26T14:00:21;0.70;;;0.50;;
18322;SDS011;9287;49.456;11.064;2023-02-26T14:02:54;0.93;;;0.40;;
18322;SDS011;9287;49.456;11.064;2023-02-26T14:11:32;0.67;;;0.40;;
18322;SDS011;9287;49.456;11.064;2023-02-26T14:14:08;1.10;;;0.40;;
18322;SDS011;9287;49.456;11.064;2023-02-26T14:16:54;1.20;;;0.50;;
18322;SDS011;9287;49.456;11.064;2023-02-26T14:23:10;2.07;;;0.60;;
18322;SDS011;9287;49.456;11.064;2023-02-26T14:25:45;0.40;;;0.30;;
18322;SDS011;9287;49.456;11.064;2023-02-26T14:28:28;0.60;;;0.30;;
18322;SDS011;9287;49.456;11.064;2023-02-26T14:31:07;0.33;;;0.33;;
18322;SDS011;9287;49.456;11.064;2023-02-26T14:33:43;1.03;;;0.50;;
18322;SDS011;9287;49.456;11.064;2023-02-26T14:36:18;0.50;;;0.40;;
18322;SDS011;9287;49.456;11.064;2023-02-26T14:38:59;1.03;;;0.40;;
18322;SDS011;9287;49.456;11.064;2023-02-26T14:41:31;0.90;;;0.30;;
18322;SDS011;9287;49.456;11.064;2023-02-26T14:44:03;1.50;;;0.60;;
18322;SDS011;9287;49.456;11.064;2023-02-26T14:46:39;1.30;;;0.50;;
18322;SDS011;9287;49.456;11.064;2023-02-26T14:49:14;1.00;;;0.50;;
18322;SDS011;9287;49.456;11.064;2023-02-26T14:51:48;1.83;;;0.40;;
18322;SDS011;9287;49.456;11.064;2023-02-26T14:54:34;1.80;;;0.57;;
18322;SDS011;9287;49.456;11.064;2023-02-26T14:57:17;0.40;;;0.40;;
18322;SDS011;9287;49.456;11.064;2023-02-26T14:59:57;0.97;;;0.40;;
18322;SDS011;9287;49.456;11.064;2023-02-26T15:02:41;1.33;;;0.50;;
18322;SDS011;9287;49.456;11.064;2023-02-26T15:05:31;0.77;;;0.47;;
18322;SDS011;9287;49.456;11.064;2023-02-26T15:11:08;11.47;;;2.67;;
18322;SDS011;9287;49.456;11.064;2023-02-26T15:16:46;0.50;;;0.50;;
18322;SDS011;9287;49.456;11.064;2023-02-26T15:19:25;1.60;;;0.40;;
18322;SDS011;9287;49.456;11.064;2023-02-26T15:22:11;0.50;;;0.40;;
18322;SDS011;9287;49.456;11.064;2023-02-26T15:24:50;0.77;;;0.50;;
18322;SDS011;9287;49.456;11.064;2023-02-26T15:27:18;1.20;;;0.50;;
18322;SDS011;9287;49.456;11.064;2023-02-26T15:29:47;1.30;;;0.40;;
18322;SDS011;9287;49.456;11.064;2023-02-26T15:32:21;0.40;;;0.30;;
18322;SDS011;9287;49.456;11.064;2023-02-26T15:34:55;0.83;;;0.43;;
18322;SDS011;9287;49.456;11.064;2023-02-26T15:37:28;0.87;;;0.40;;
18322;SDS011;9287;49.456;11.064;2023-02-26T15:39:58;1.83;;;0.50;;
18322;SDS011;9287;49.456;11.064;2023-02-26T15:42:30;2.60;;;0.43;;
18322;SDS011;9287;49.456;11.064;2023-02-26T15:45:04;0.70;;;0.50;;
18322;SDS011;9287;49.456;11.064;2023-02-26T15:47:39;1.00;;;0.70;;
18322;SDS011;9287;49.456;11.064;2023-02-26T15:50:09;1.23;;;0.50;;